Time;durP1;ratioP1;P1;durP2;ratioP2;P2;SDS_P1;SDS_P2;PMS_P1;PMS_P2;Temp;Humidity;BMP_temperature;BMP_pressure;BME280_temperature;BME280_humidity;BME280_pressure;Samples;Min_cycle;Max_cycle;Signal;HPM_P1;HPM_P2
2023/09/19 00:01:19;;;;;;;6.80;4.17;;;19.50;99.90;;;;;;5013212;28;20183;-66
2023/09/19 00:03:45;;;;;;;4.80;4.40;;;19.50;99.90;;;;;;5012542;28;20183;-64
2023/09/19 00:06:13;;;;;;;4.63;4.23;;;19.40;99.90;;;;;;5013718;28;20414;-66
2023/09/19 00:08:39;;;;;;;8.10;4.33;;;19.50;99.90;;;;;;5013563;28;20230;-65
2023/09/19 00:11:06;;;;;;;4.40;3.77;;;19.40;99.90;;;;;;5013405;28;20436;-65
2023/09/19 00:13:33;;;;;;;3.50;3.30;;;19.40;99.90;;;;;;5013733;28;20442;-65
2023/09/19 00:15:59;;;;;;;3.83;3.53;;;19.40;99.90;;;;;;5012690;28;20892;-65
2023/09/19 00:18:32;;;;;;;4.63;3.90;;;19.40;99.90;;;;;;5013464;28;20418;-66
2023/09/19 00:21:01;;;;;;;4.07;3.70;;;19.40;99.90;;;;;;5013373;28;20398;-65
2023/09/19 00:23:28;;;;;;;5.00;4.60;;;19.30;99.90;;;;;;5013888;28;20753;-65
2023/09/19 00:25:57;;;;;;;7.37;3.80;;;19.30;99.90;;;;;;5013090;28;20780;-65
2023/09/19 00:28:23;;;;;;;4.70;3.67;;;19.30;99.90;;;;;;5013178;28;20963;-65
2023/09/19 00:30:49;;;;;;;5.70;3.30;;;19.30;99.90;;;;;;5010882;28;20437;-65
2023/09/19 00:33:16;;;;;;;7.13;3.60;;;19.30;99.90;;;;;;5013827;28;20529;-65
2023/09/19 00:35:53;;;;;;;3.90;3.60;;;19.30;99.90;;;;;;5013613;28;20417;-65
2023/09/19 00:38:22;;;;;;;4.67;3.57;;;19.20;99.90;;;;;;5013912;28;20765;-65
2023/09/19 00:40:48;;;;;;;8.20;4.13;;;19.30;99.90;;;;;;5012855;28;20461;-63
2023/09/19 00:43:14;;;;;;;4.33;3.70;;;19.30;99.90;;;;;;5013436;28;20461;-65
2023/09/19 00:45:43;;;;;;;6.40;3.60;;;19.30;99.90;;;;;;5013486;28;20805;-65
2023/09/19 00:48:10;;;;;;;4.10;3.80;;;19.20;99.90;;;;;;5013043;28;20202;-65
2023/09/19 00:50:36;;;;;;;4.73;4.30;;;19.20;99.90;;;;;;5013037;28;20464;-65
2023/09/19 00:53:09;;;;;;;3.90;3.57;;;19.20;99.90;;;;;;5012806;28;20457;-65
2023/09/19 00:55:40;;;;;;;6.73;3.80;;;19.20;99.90;;;;;;5013375;28;20460;-65
2023/09/19 00:58:06;;;;;;;6.90;4.30;;;19.20;99.90;;;;;;5012647;28;20437;-65
2023/09/19 01:00:33;;;;;;;4.30;3.43;;;19.20;99.90;;;;;;5012084;28;20485;-65
2023/09/19 01:03:03;;;;;;;7.57;3.90;;;19.20;99.90;;;;;;5011389;28;20457;-65
2023/09/19 01:05:32;;;;;;;3.43;3.17;;;19.10;99.90;;;;;;5013193;28;20406;-65
2023/09/19 01:07:58;;;;;;;4.17;3.80;;;19.10;99.90;;;;;;5012540;28;20462;-65
2023/09/19 01:10:25;;;;;;;6.93;4.13;;;19.10;99.90;;;;;;5012685;28;20418;-65
2023/09/19 01:13:12;;;;;;;5.37;3.60;;;19.10;99.90;;;;;;5012743;28;20438;-65
2023/09/19 01:15:52;;;;;;;5.30;3.10;;;19.10;99.90;;;;;;5013104;28;20438;-65
2023/09/19 01:18:30;;;;;;;6.40;3.43;;;19.10;99.90;;;;;;5012442;28;20414;-65
2023/09/19 01:21:13;;;;;;;6.50;3.83;;;19.10;99.90;;;;;;5012094;28;20398;-65
2023/09/19 01:23:57;;;;;;;3.63;2.67;;;19.00;99.90;;;;;;5013286;28;20394;-65
2023/09/19 01:26:55;;;;;;;4.50;3.27;;;19.00;99.90;;;;;;5011727;28;20473;-65
2023/09/19 01:29:39;;;;;;;4.97;3.07;;;19.00;99.90;;;;;;4999700;28;20969;-65
2023/09/19 01:32:09;;;;;;;5.10;3.00;;;18.90;99.90;;;;;;5012353;28;20394;-65
2023/09/19 01:34:45;;;;;;;5.33;3.60;;;18.90;99.90;;;;;;5012915;28;20422;-65
2023/09/19 01:37:11;;;;;;;4.50;3.27;;;19.00;99.90;;;;;;5011802;28;20444;-65
2023/09/19 01:39:38;;;;;;;7.47;3.83;;;19.00;99.90;;;;;;5012518;28;20421;-66
2023/09/19 01:42:19;;;;;;;4.40;3.27;;;19.00;99.90;;;;;;5012107;28;20175;-66
2023/09/19 01:44:48;;;;;;;3.33;2.97;;;19.00;99.90;;;;;;5012570;28;20417;-66
2023/09/19 01:47:50;;;;;;;3.43;3.13;;;18.90;99.90;;;;;;5011711;28;20485;-66
2023/09/19 01:50:32;;;;;;;5.70;3.30;;;18.90;99.90;;;;;;5012631;28;20488;-66
2023/09/19 01:53:05;;;;;;;6.17;3.40;;;18.80;99.90;;;;;;5010854;28;20425;-65
2023/09/19 01:55:37;;;;;;;3.33;3.00;;;18.80;99.90;;;;;;5012774;28;20906;-65
2023/09/19 01:58:14;;;;;;;3.60;2.83;;;18.70;99.90;;;;;;5010882;28;20440;-65
2023/09/19 02:00:45;;;;;;;5.53;3.77;;;18.80;99.90;;;;;;5012885;28;20406;-64
2023/09/19 02:03:12;;;;;;;4.10;2.90;;;18.80;99.90;;;;;;5011928;28;20390;-65
2023/09/19 02:05:39;;;;;;;4.43;3.23;;;18.80;99.90;;;;;;5012603;28;20406;-65
2023/09/19 02:08:05;;;;;;;3.63;3.30;;;18.80;99.90;;;;;;5012111;28;20465;-65
2023/09/19 02:10:31;;;;;;;7.80;3.70;;;18.80;99.90;;;;;;5012183;28;20449;-65
2023/09/19 02:12:57;;;;;;;4.50;3.40;;;18.80;99.90;;;;;;5011845;28;20446;-65
2023/09/19 02:15:22;;;;;;;3.93;3.10;;;18.80;99.90;;;;;;5012441;28;20254;-65
2023/09/19 02:17:48;;;;;;;3.73;3.33;;;18.80;99.90;;;;;;5010039;28;20210;-65
2023/09/19 02:20:19;;;;;;;4.30;3.67;;;18.80;99.90;;;;;;5011415;28;20179;-65
2023/09/19 02:22:45;;;;;;;6.90;3.40;;;18.80;99.90;;;;;;5011112;28;20187;-65
2023/09/19 02:25:11;;;;;;;4.07;3.67;;;18.80;99.90;;;;;;5011463;28;20480;-65
2023/09/19 02:27:37;;;;;;;5.10;3.43;;;18.90;99.90;;;;;;5012301;28;20221;-65
2023/09/19 02:30:04;;;;;;;7.07;4.00;;;18.90;99.90;;;;;;5011679;28;20714;-65
2023/09/19 02:32:36;;;;;;;7.57;3.53;;;18.90;99.90;;;;;;5012239;28;20438;-65
2023/09/19 02:35:04;;;;;;;5.20;3.60;;;18.80;99.90;;;;;;5010091;28;20417;-65
2023/09/19 02:37:32;;;;;;;4.50;3.80;;;18.80;99.90;;;;;;5011942;28;20854;-65
2023/09/19 02:39:58;;;;;;;5.60;3.40;;;18.80;99.90;;;;;;5012123;28;20999;-64
2023/09/19 02:42:24;;;;;;;7.50;3.77;;;18.80;99.90;;;;;;5015582;28;20414;-65
2023/09/19 02:44:49;;;;;;;5.57;3.00;;;18.80;99.90;;;;;;5014418;28;20179;-65
2023/09/19 02:47:16;;;;;;;4.23;3.50;;;18.80;99.90;;;;;;5013192;28;20199;-65
2023/09/19 02:49:42;;;;;;;10.20;3.23;;;18.90;99.90;;;;;;5015256;28;20667;-65
2023/09/19 02:52:08;;;;;;;8.47;3.80;;;18.80;99.90;;;;;;5014009;28;20410;-64
2023/09/19 02:54:34;;;;;;;4.77;3.33;;;18.80;99.90;;;;;;5015238;28;20433;-65
2023/09/19 02:57:00;;;;;;;5.60;3.40;;;18.90;99.90;;;;;;5014828;28;20237;-64
2023/09/19 02:59:25;;;;;;;4.53;3.60;;;18.80;99.90;;;;;;5015348;28;20175;-65
2023/09/19 03:01:51;;;;;;;6.30;3.80;;;18.80;99.90;;;;;;5015294;28;20290;-65
2023/09/19 03:04:19;;;;;;;5.63;3.60;;;18.80;99.90;;;;;;5014281;28;20186;-65
2023/09/19 03:06:46;;;;;;;4.90;3.90;;;18.80;99.90;;;;;;5014859;28;20213;-65
2023/09/19 03:09:11;;;;;;;11.93;3.70;;;18.70;99.90;;;;;;5014581;28;20888;-65
2023/09/19 03:11:39;;;;;;;4.07;3.60;;;18.70;99.90;;;;;;5013891;28;20430;-65
2023/09/19 03:14:06;;;;;;;9.07;3.70;;;18.60;99.90;;;;;;5014492;28;20175;-65
2023/09/19 03:16:34;;;;;;;5.70;3.73;;;18.60;99.90;;;;;;5014949;28;20504;-65
2023/09/19 03:19:03;;;;;;;3.60;3.30;;;18.60;99.90;;;;;;5014454;28;20418;-65
2023/09/19 03:21:30;;;;;;;3.43;3.13;;;18.60;99.90;;;;;;5015050;28;20493;-66
2023/09/19 03:23:56;;;;;;;4.97;3.60;;;18.50;99.90;;;;;;5013900;28;20426;-66
2023/09/19 03:26:22;;;;;;;4.60;3.50;;;18.60;99.90;;;;;;5014346;28;20406;-66
2023/09/19 03:28:48;;;;;;;5.67;5.17;;;18.60;99.90;;;;;;5014779;28;20512;-66
2023/09/19 03:31:14;;;;;;;5.30;4.10;;;18.60;99.90;;;;;;5013933;28;20468;-65
2023/09/19 03:33:39;;;;;;;5.63;3.73;;;18.60;99.90;;;;;;5014897;28;20529;-66
2023/09/19 03:36:05;;;;;;;5.30;3.70;;;18.60;99.90;;;;;;5012959;28;20179;-65
2023/09/19 03:38:32;;;;;;;3.97;3.57;;;18.60;99.90;;;;;;5014730;28;20674;-65
2023/09/19 03:40:58;;;;;;;7.00;3.77;;;18.60;99.90;;;;;;5014155;28;20497;-60
2023/09/19 03:43:24;;;;;;;7.80;4.43;;;18.60;99.90;;;;;;5014523;28;20421;-66
2023/09/19 03:45:50;;;;;;;8.50;4.40;;;18.60;99.90;;;;;;5014502;28;20410;-65
2023/09/19 03:48:17;;;;;;;5.70;3.90;;;18.60;99.90;;;;;;5012328;28;20958;-65
2023/09/19 03:50:43;;;;;;;4.97;3.20;;;18.60;99.90;;;;;;5012738;28;20488;-66
2023/09/19 03:53:09;;;;;;;3.77;3.37;;;18.60;99.90;;;;;;5012974;28;20473;-65
2023/09/19 03:55:35;;;;;;;8.90;3.70;;;18.60;99.90;;;;;;5013035;28;20466;-65
2023/09/19 03:58:02;;;;;;;6.40;3.07;;;18.40;99.90;;;;;;5012500;28;20521;-65
2023/09/19 04:00:29;;;;;;;7.33;4.00;;;18.40;99.90;;;;;;5014217;28;20254;-66
2023/09/19 04:02:56;;;;;;;4.53;4.13;;;18.40;99.90;;;;;;5014225;28;20402;-66
2023/09/19 04:05:23;;;;;;;6.73;4.90;;;18.40;99.90;;;;;;5012239;28;20777;-66
2023/09/19 04:07:50;;;;;;;6.70;4.30;;;18.40;99.90;;;;;;5013577;28;20488;-65
2023/09/19 04:10:16;;;;;;;5.40;4.23;;;18.30;99.90;;;;;;5013275;28;20820;-66
2023/09/19 04:12:51;;;;;;;4.90;4.47;;;18.30;99.90;;;;;;5014009;28;20402;-65
2023/09/19 04:15:17;;;;;;;4.20;3.40;;;18.20;99.90;;;;;;5012149;28;20964;-66
2023/09/19 04:17:43;;;;;;;6.60;4.40;;;18.20;99.90;;;;;;5014037;28;20425;-65
2023/09/19 04:20:12;;;;;;;5.23;3.70;;;18.20;99.90;;;;;;5012484;28;20190;-66
2023/09/19 04:22:39;;;;;;;5.33;3.40;;;18.20;99.90;;;;;;5012070;28;20171;-65
2023/09/19 04:25:08;;;;;;;8.90;5.23;;;18.20;99.90;;;;;;5013202;28;20410;-65
2023/09/19 04:27:34;;;;;;;5.87;4.50;;;18.20;99.90;;;;;;5013780;28;20457;-66
2023/09/19 04:30:09;;;;;;;8.37;5.50;;;18.20;99.90;;;;;;5012360;28;20421;-66
2023/09/19 04:32:36;;;;;;;8.17;5.00;;;18.30;99.90;;;;;;5013824;28;20752;-66
2023/09/19 04:35:05;;;;;;;4.57;3.67;;;18.30;99.90;;;;;;5013164;28;20398;-64
2023/09/19 04:37:31;;;;;;;5.13;4.70;;;18.30;99.90;;;;;;5012311;28;20437;-65
2023/09/19 04:39:57;;;;;;;6.80;4.10;;;18.30;99.90;;;;;;5013161;28;20813;-66
2023/09/19 04:42:24;;;;;;;4.93;4.50;;;18.20;99.90;;;;;;5012936;28;20241;-66
2023/09/19 04:44:53;;;;;;;9.90;4.20;;;18.20;99.90;;;;;;5013092;28;20446;-66
2023/09/19 04:47:19;;;;;;;6.20;3.10;;;18.20;99.90;;;;;;5012202;28;20446;-66
2023/09/19 04:49:45;;;;;;;6.63;4.07;;;18.30;99.90;;;;;;5012656;28;20770;-66
2023/09/19 04:52:10;;;;;;;5.90;3.93;;;18.30;99.90;;;;;;5012049;28;20193;-66
2023/09/19 04:54:37;;;;;;;4.47;4.07;;;18.40;99.90;;;;;;5013459;28;20185;-66
2023/09/19 04:57:05;;;;;;;6.87;3.10;;;18.20;99.90;;;;;;5012709;28;20410;-64
2023/09/19 04:59:31;;;;;;;4.63;3.53;;;18.30;99.90;;;;;;5013513;28;20410;-66
2023/09/19 05:01:57;;;;;;;8.80;3.90;;;18.30;99.90;;;;;;5011279;28;20426;-66
2023/09/19 05:04:22;;;;;;;7.80;4.60;;;18.30;99.90;;;;;;5012208;28;20218;-67
2023/09/19 05:06:48;;;;;;;4.37;4.07;;;18.40;99.90;;;;;;5012897;28;20171;-66
2023/09/19 05:09:15;;;;;;;3.90;3.37;;;18.40;99.90;;;;;;5012491;28;20217;-66
2023/09/19 05:11:41;;;;;;;4.90;4.03;;;18.40;99.90;;;;;;5013061;28;20202;-66
2023/09/19 05:14:06;;;;;;;3.87;3.63;;;18.40;99.90;;;;;;5012483;28;20412;-65
2023/09/19 05:16:32;;;;;;;3.47;3.13;;;18.40;99.90;;;;;;5013102;28;20607;-66
2023/09/19 05:18:59;;;;;;;4.20;3.40;;;18.40;99.90;;;;;;5004680;28;20183;-66
2023/09/19 05:21:28;;;;;;;5.10;3.70;;;18.40;99.90;;;;;;5012386;28;20234;-66
2023/09/19 05:23:55;;;;;;;6.07;3.80;;;18.40;99.90;;;;;;5012707;28;20405;-66
2023/09/19 05:26:21;;;;;;;6.43;5.93;;;18.40;99.90;;;;;;5012316;28;20425;-66
2023/09/19 05:28:50;;;;;;;5.43;3.30;;;18.40;99.90;;;;;;5011199;28;20818;-67
2023/09/19 05:31:16;;;;;;;5.07;4.67;;;18.30;99.90;;;;;;5011787;28;20421;-66
2023/09/19 05:33:42;;;;;;;4.90;3.33;;;18.30;99.90;;;;;;5012823;28;20410;-66
2023/09/19 05:36:10;;;;;;;8.30;5.10;;;18.40;99.90;;;;;;5012076;28;20422;-66
2023/09/19 05:38:36;;;;;;;7.20;3.23;;;18.30;99.90;;;;;;5013118;28;20600;-66
2023/09/19 05:41:02;;;;;;;4.13;3.30;;;18.40;99.90;;;;;;5012080;28;20512;-66
2023/09/19 05:43:28;;;;;;;7.77;4.00;;;18.30;99.90;;;;;;5012064;28;20418;-67
2023/09/19 05:45:56;;;;;;;3.97;3.70;;;18.40;99.90;;;;;;5011059;28;20175;-66
2023/09/19 05:48:22;;;;;;;5.60;4.03;;;18.40;99.90;;;;;;5010642;28;20190;-65
2023/09/19 05:50:48;;;;;;;7.33;6.80;;;18.20;99.90;;;;;;5012163;28;20452;-67
2023/09/19 05:53:15;;;;;;;3.50;3.10;;;18.20;99.90;;;;;;5012035;28;20631;-66
2023/09/19 05:55:41;;;;;;;5.13;3.63;;;18.30;99.90;;;;;;5011358;28;20409;-67
2023/09/19 05:58:08;;;;;;;5.27;4.50;;;18.30;99.90;;;;;;5011804;28;20424;-66
2023/09/19 06:00:34;;;;;;;4.10;3.73;;;18.30;99.90;;;;;;5012575;28;20498;-67
2023/09/19 06:03:01;;;;;;;4.50;3.20;;;18.40;99.90;;;;;;5012236;28;20953;-67
2023/09/19 06:05:27;;;;;;;7.67;3.00;;;18.30;99.90;;;;;;5010811;28;20509;-67
2023/09/19 06:07:53;;;;;;;6.10;4.00;;;18.40;99.90;;;;;;5008592;28;20883;-66
2023/09/19 06:10:23;;;;;;;5.13;3.50;;;18.40;99.90;;;;;;5011930;28;20422;-66
2023/09/19 06:12:49;;;;;;;5.00;4.33;;;18.40;99.90;;;;;;5012361;28;20418;-73
2023/09/19 06:15:18;;;;;;;5.17;3.40;;;18.50;99.90;;;;;;5012827;28;20409;-72
2023/09/19 06:17:48;;;;;;;6.47;4.97;;;18.90;99.90;;;;;;5016164;28;20262;-75
2023/09/19 06:20:19;;;;;;;5.90;3.83;;;19.10;99.90;;;;;;5015517;28;20398;-69
2023/09/19 06:22:45;;;;;;;4.87;4.40;;;19.20;99.90;;;;;;5016094;28;20453;-70
2023/09/19 06:25:19;;;;;;;5.53;3.60;;;19.30;99.90;;;;;;5015481;28;20936;-68
2023/09/19 06:27:52;;;;;;;6.57;3.30;;;19.50;99.90;;;;;;5015766;28;20442;-69
2023/09/19 06:30:18;;;;;;;7.50;3.17;;;19.30;99.90;;;;;;5012971;28;20406;-68
2023/09/19 06:32:44;;;;;;;5.13;2.90;;;19.10;99.90;;;;;;4994983;28;20442;-68
2023/09/19 06:35:11;;;;;;;5.67;2.90;;;18.90;99.90;;;;;;4995400;28;20419;-67
2023/09/19 06:37:40;;;;;;;5.20;3.40;;;18.80;99.90;;;;;;4995736;28;20419;-66
2023/09/19 06:40:14;;;;;;;12.83;3.80;;;18.70;99.90;;;;;;4995961;28;20553;-67
2023/09/19 06:42:47;;;;;;;7.03;3.67;;;19.00;99.90;;;;;;4996155;28;20411;-67
2023/09/19 06:45:17;;;;;;;7.50;5.07;;;19.20;99.90;;;;;;4995370;28;20415;-66
2023/09/19 06:47:50;;;;;;;6.27;4.70;;;19.40;99.90;;;;;;4995640;28;20973;-63
2023/09/19 06:50:22;;;;;;;6.40;4.03;;;19.20;99.90;;;;;;4994925;28;20490;-62
2023/09/19 06:52:53;;;;;;;6.53;4.30;;;18.90;99.90;;;;;;4995719;28;20403;-63
2023/09/19 06:55:20;;;;;;;3.90;2.87;;;18.70;99.90;;;;;;4995284;28;20399;-65
2023/09/19 06:57:46;;;;;;;5.90;3.27;;;18.60;99.90;;;;;;5009483;28;20410;-63
2023/09/19 07:00:21;;;;;;;8.40;3.07;;;18.60;99.90;;;;;;5014304;28;20761;-64
2023/09/19 07:02:57;;;;;;;7.60;3.83;;;18.50;99.90;;;;;;5014705;28;20420;-64
2023/09/19 07:05:23;;;;;;;6.43;4.10;;;18.40;99.90;;;;;;5014237;28;20964;-64
2023/09/19 07:07:49;;;;;;;7.00;5.10;;;18.30;99.90;;;;;;5013879;28;20591;-64
2023/09/19 07:10:15;;;;;;;6.77;4.37;;;18.20;99.90;;;;;;5011653;28;20430;-66
2023/09/19 07:12:42;;;;;;;7.70;4.97;;;18.20;99.90;;;;;;5014155;28;20901;-65
2023/09/19 07:15:08;;;;;;;8.53;6.93;;;18.20;99.90;;;;;;5014190;28;20418;-64
2023/09/19 07:17:34;;;;;;;13.60;9.27;;;18.20;99.90;;;;;;5009492;28;20442;-70
2023/09/19 07:19:59;;;;;;;15.10;10.70;;;18.20;99.90;;;;;;5014614;28;20414;-68
2023/09/19 07:22:28;;;;;;;11.90;8.40;;;18.20;99.90;;;;;;5013199;28;20171;-68
2023/09/19 07:24:54;;;;;;;7.17;6.40;;;18.40;99.90;;;;;;5012223;28;20218;-67
2023/09/19 07:27:20;;;;;;;10.57;7.70;;;18.50;99.90;;;;;;5012550;28;20560;-68
2023/09/19 07:29:46;;;;;;;13.43;8.80;;;18.70;99.90;;;;;;5014203;28;20501;-71
2023/09/19 07:32:13;;;;;;;13.17;8.67;;;18.90;99.90;;;;;;5013411;28;20171;-63
2023/09/19 07:34:40;;;;;;;9.73;4.90;;;19.10;99.90;;;;;;5014026;28;20182;-68
2023/09/19 07:37:06;;;;;;;11.60;6.33;;;19.30;99.90;;;;;;5014042;28;21029;-68
2023/09/19 07:39:32;;;;;;;15.27;9.43;;;19.40;99.90;;;;;;5010597;28;20467;-68
2023/09/19 07:41:58;;;;;;;15.10;9.90;;;19.50;99.90;;;;;;5012678;28;20421;-70
2023/09/19 07:44:25;;;;;;;13.43;6.77;;;19.50;99.90;;;;;;5012699;28;20295;-68
2023/09/19 07:46:52;;;;;;;7.90;5.07;;;19.60;99.90;;;;;;5014283;28;20790;-69
2023/09/19 07:49:18;;;;;;;14.23;10.83;;;19.60;99.90;;;;;;5013930;28;20418;-68
2023/09/19 07:51:47;;;;;;;6.40;4.70;;;19.60;99.90;;;;;;5013246;28;20747;-68
2023/09/19 07:54:14;;;;;;;4.33;3.90;;;19.60;99.90;;;;;;5013559;28;20429;-64
2023/09/19 07:56:40;;;;;;;11.00;6.87;;;19.40;99.90;;;;;;5014315;28;20410;-69
2023/09/19 07:59:08;;;;;;;15.67;12.60;;;19.00;99.90;;;;;;5014253;28;20920;-67
2023/09/19 08:01:35;;;;;;;14.50;6.03;;;18.80;99.90;;;;;;5012380;28;20501;-69
2023/09/19 08:04:01;;;;;;;5.63;4.40;;;18.50;99.90;;;;;;5012566;28;20414;-72
2023/09/19 08:06:29;;;;;;;9.93;5.20;;;18.60;99.90;;;;;;5011859;28;20437;-67
2023/09/19 08:08:56;;;;;;;10.10;5.10;;;18.50;99.90;;;;;;5013321;28;20211;-68
2023/09/19 08:11:24;;;;;;;14.30;6.50;;;18.60;99.90;;;;;;5012222;28;20465;-67
2023/09/19 08:13:50;;;;;;;9.53;5.90;;;18.70;99.90;;;;;;5012580;28;20418;-68
2023/09/19 08:16:17;;;;;;;301.27;213.80;;;18.90;99.90;;;;;;5013972;28;20410;-68
2023/09/19 08:18:47;;;;;;;18.33;13.60;;;19.10;99.90;;;;;;5013784;28;20568;-68
2023/09/19 08:21:14;;;;;;;9.07;5.90;;;19.20;99.90;;;;;;5013554;28;20429;-68
2023/09/19 08:23:40;;;;;;;13.67;9.87;;;19.30;99.90;;;;;;5012465;28;21196;-67
2023/09/19 08:26:07;;;;;;;7.60;3.90;;;19.50;99.90;;;;;;5013228;28;20764;-71
2023/09/19 08:28:34;;;;;;;9.70;7.20;;;19.60;99.90;;;;;;5012092;28;20997;-69
2023/09/19 08:31:07;;;;;;;8.30;7.23;;;19.60;99.90;;;;;;5010549;28;20942;-68
2023/09/19 08:33:34;;;;;;;7.20;4.60;;;19.70;99.90;;;;;;5012518;28;20406;-68
2023/09/19 08:36:00;;;;;;;8.00;5.77;;;19.80;99.90;;;;;;5013411;28;20405;-68
2023/09/19 08:38:29;;;;;;;8.17;5.70;;;20.00;99.90;;;;;;5012627;28;20420;-68
2023/09/19 08:40:59;;;;;;;8.30;7.50;;;20.10;99.90;;;;;;5013616;28;20485;-67
2023/09/19 08:43:26;;;;;;;7.27;6.13;;;20.10;99.90;;;;;;5012960;28;20406;-67
2023/09/19 08:46:11;;;;;;;7.83;5.07;;;20.20;99.90;;;;;;5013567;28;20402;-68
2023/09/19 08:48:44;;;;;;;7.50;5.03;;;20.20;99.90;;;;;;5012980;28;20440;-68
2023/09/19 08:51:21;;;;;;;7.73;5.23;;;20.30;99.90;;;;;;5013578;28;20371;-68
2023/09/19 08:53:50;;;;;;;7.80;4.47;;;20.40;99.90;;;;;;5013555;28;20877;-68
2023/09/19 08:56:18;;;;;;;6.20;3.90;;;20.40;99.90;;;;;;5011583;28;20422;-63
2023/09/19 08:59:00;;;;;;;8.03;5.00;;;20.40;99.90;;;;;;5013473;28;20428;-68
2023/09/19 09:01:28;;;;;;;180.73;142.50;;;20.50;99.90;;;;;;5013896;28;20474;-68
2023/09/19 09:03:55;;;;;;;14.00;9.30;;;20.60;99.90;;;;;;5013497;28;20395;-69
2023/09/19 09:06:23;;;;;;;10.43;9.33;;;20.70;99.90;;;;;;5012720;28;20408;-68
2023/09/19 09:08:51;;;;;;;9.90;7.00;;;20.70;99.90;;;;;;5013088;28;20550;-69
2023/09/19 09:11:18;;;;;;;11.77;8.77;;;20.70;99.90;;;;;;5012680;28;20417;-64
2023/09/19 09:13:47;;;;;;;12.67;8.77;;;20.70;99.90;;;;;;5012651;28;20772;-69
2023/09/19 09:16:18;;;;;;;11.43;7.70;;;20.70;99.90;;;;;;5013195;28;20406;-68
2023/09/19 09:18:45;;;;;;;8.03;7.27;;;20.70;99.90;;;;;;5013276;28;20394;-68
2023/09/19 09:21:11;;;;;;;10.87;8.27;;;20.80;99.90;;;;;;5012988;28;20410;-69
2023/09/19 09:23:38;;;;;;;8.70;7.83;;;20.80;99.90;;;;;;5012289;28;20750;-69
2023/09/19 09:26:05;;;;;;;7.60;7.00;;;20.90;99.90;;;;;;5011924;28;20440;-70
2023/09/19 09:28:33;;;;;;;6.57;5.50;;;20.90;99.90;;;;;;5012293;28;20458;-69
2023/09/19 09:31:02;;;;;;;8.00;6.87;;;20.80;99.90;;;;;;5012914;28;20814;-68
2023/09/19 09:33:29;;;;;;;7.00;4.77;;;20.90;99.90;;;;;;5012385;28;20402;-68
2023/09/19 09:35:57;;;;;;;9.30;8.10;;;20.90;99.50;;;;;;5011537;28;20920;-69
2023/09/19 09:38:31;;;;;;;6.07;5.50;;;20.90;99.60;;;;;;5012536;28;20505;-68
2023/09/19 09:43:29;;;;;;;5.70;4.53;;;21.10;99.00;;;;;;5012193;28;20401;-68
2023/09/19 09:49:25;;;;;;;7.97;7.17;;;21.00;99.90;;;;;;5013507;28;20446;-70
2023/09/19 09:52:07;;;;;;;33.27;27.13;;;20.80;99.50;;;;;;5017059;28;20701;-71
2023/09/19 09:54:38;;;;;;;13.33;11.30;;;20.60;99.90;;;;;;5010322;28;20445;-70
2023/09/19 09:57:16;;;;;;;3.70;3.10;;;20.40;99.90;;;;;;5016857;28;20786;-71
2023/09/19 10:00:14;;;;;;;6.90;5.70;;;20.40;99.60;;;;;;5016131;28;20394;-70
2023/09/19 10:02:41;;;;;;;11.03;8.23;;;20.40;99.90;;;;;;5016070;28;20488;-70
2023/09/19 10:07:47;;;;;;;5.27;3.60;;;20.80;99.90;;;;;;5015703;28;21120;-71
2023/09/19 10:10:16;;;;;;;4.30;4.00;;;21.00;99.10;;;;;;5016488;28;20398;-70
2023/09/19 10:12:47;;;;;;;6.90;4.43;;;21.00;97.30;;;;;;5015346;28;21029;-70
2023/09/19 10:15:15;;;;;;;7.07;5.60;;;21.00;98.10;;;;;;5016199;28;20434;-71
2023/09/19 10:17:45;;;;;;;7.00;6.40;;;21.00;98.60;;;;;;5015611;28;21058;-70
2023/09/19 10:20:24;;;;;;;5.77;5.20;;;21.20;98.40;;;;;;5016135;28;20406;-71
2023/09/19 10:22:59;;;;;;;4.33;3.57;;;21.20;98.40;;;;;;5015146;28;20430;-70
2023/09/19 10:25:29;;;;;;;9.27;4.67;;;21.30;97.70;;;;;;5015593;28;20397;-71
2023/09/19 10:27:58;;;;;;;6.80;5.07;;;21.40;97.30;;;;;;5015897;28;20780;-70
2023/09/19 10:30:25;;;;;;;6.33;5.40;;;21.30;96.60;;;;;;5013014;28;20914;-71
2023/09/19 10:33:03;;;;;;;6.73;3.80;;;21.20;97.40;;;;;;5015595;28;20417;-71
2023/09/19 10:35:29;;;;;;;8.33;3.97;;;21.10;98.20;;;;;;5011360;28;20904;-71
2023/09/19 10:38:00;;;;;;;6.10;5.00;;;21.40;98.50;;;;;;5012907;28;20410;-70
2023/09/19 10:40:30;;;;;;;7.93;4.03;;;21.70;98.30;;;;;;5014501;28;20551;-71
2023/09/19 10:43:06;;;;;;;6.37;4.60;;;22.00;96.70;;;;;;5015200;28;20410;-71
2023/09/19 10:45:38;;;;;;;7.60;5.60;;;22.00;95.70;;;;;;5011437;28;20436;-71
2023/09/19 10:48:06;;;;;;;7.43;4.73;;;22.00;96.10;;;;;;5011728;28;21019;-70
2023/09/19 10:50:45;;;;;;;4.97;3.83;;;22.00;95.80;;;;;;5012735;28;20816;-71
2023/09/19 10:53:12;;;;;;;5.13;4.73;;;22.00;95.10;;;;;;5015274;28;20424;-71
2023/09/19 10:55:39;;;;;;;7.80;5.87;;;21.90;94.40;;;;;;5013544;28;20795;-70
2023/09/19 10:58:14;;;;;;;4.70;4.40;;;21.70;94.50;;;;;;5014132;28;20410;-70
2023/09/19 11:00:56;;;;;;;6.70;4.40;;;21.60;94.10;;;;;;5014048;28;20468;-70
2023/09/19 11:03:29;;;;;;;4.83;4.13;;;21.40;94.20;;;;;;5015346;28;20417;-70
2023/09/19 11:06:18;;;;;;;4.70;4.00;;;21.40;94.10;;;;;;5015395;28;20391;-71
2023/09/19 11:08:56;;;;;;;4.50;4.10;;;21.40;95.10;;;;;;5014792;28;20740;-70
2023/09/19 11:11:41;;;;;;;6.20;5.60;;;21.50;94.40;;;;;;5015216;28;20769;-70
2023/09/19 11:14:25;;;;;;;5.43;4.83;;;21.70;94.40;;;;;;5015085;28;20816;-70
2023/09/19 11:17:15;;;;;;;5.10;4.43;;;21.90;93.90;;;;;;5012885;28;20433;-71
2023/09/19 11:22:56;;;;;;;5.77;5.00;;;22.00;91.60;;;;;;5004597;28;20457;-71
2023/09/19 11:25:32;;;;;;;14.23;11.50;;;21.90;91.20;;;;;;5015081;28;20775;-71
2023/09/19 11:28:05;;;;;;;10.13;4.53;;;22.00;91.60;;;;;;5014598;28;20830;-71
2023/09/19 11:30:32;;;;;;;6.47;5.23;;;21.80;92.40;;;;;;5013718;28;20493;-71
2023/09/19 11:33:41;;;;;;;5.87;5.27;;;21.70;92.70;;;;;;5014705;28;20414;-71
2023/09/19 11:36:23;;;;;;;6.33;5.47;;;21.80;92.60;;;;;;5012862;28;20456;-71
2023/09/19 11:38:50;;;;;;;5.60;4.33;;;21.80;91.40;;;;;;5013573;28;20500;-71
2023/09/19 11:43:51;;;;;;;5.77;3.73;;;22.10;90.90;;;;;;5014036;28;20254;-71
2023/09/19 11:46:21;;;;;;;4.20;3.80;;;22.30;91.90;;;;;;5014697;28;20800;-71
2023/09/19 11:48:53;;;;;;;5.87;3.63;;;22.40;91.20;;;;;;5013955;28;20803;-71
2023/09/19 11:51:26;;;;;;;6.30;5.70;;;22.40;91.20;;;;;;5014622;28;20398;-71
2023/09/19 11:54:03;;;;;;;3.53;3.00;;;22.40;91.80;;;;;;5014158;28;20887;-71
2023/09/19 11:56:31;;;;;;;6.33;5.80;;;22.40;92.10;;;;;;5013697;28;20391;-71
2023/09/19 11:58:57;;;;;;;5.90;5.33;;;22.60;92.30;;;;;;5014052;28;20472;-70
2023/09/19 12:01:30;;;;;;;4.47;3.20;;;22.60;91.70;;;;;;5014277;28;20406;-71
2023/09/19 12:03:59;;;;;;;5.53;4.17;;;22.60;91.50;;;;;;5014207;28;20411;-71
2023/09/19 12:06:29;;;;;;;4.83;4.53;;;22.70;91.10;;;;;;5011303;28;20427;-71
2023/09/19 12:08:57;;;;;;;3.83;3.00;;;22.70;91.00;;;;;;5013641;28;20938;-71
2023/09/19 12:11:24;;;;;;;4.77;4.37;;;22.60;91.20;;;;;;5013799;28;20470;-71
2023/09/19 12:13:52;;;;;;;4.30;3.60;;;22.30;90.50;;;;;;5012400;28;20493;-70
2023/09/19 12:16:24;;;;;;;4.70;3.23;;;22.40;91.90;;;;;;5014083;28;20537;-71
2023/09/19 12:18:50;;;;;;;4.20;3.67;;;22.30;89.30;;;;;;5013396;28;20509;-70
2023/09/19 12:21:22;;;;;;;9.20;3.47;;;21.90;88.10;;;;;;5013865;28;20410;-71
2023/09/19 12:24:13;;;;;;;5.03;3.57;;;21.80;89.60;;;;;;5012049;28;20754;-71
2023/09/19 12:26:43;;;;;;;6.13;3.50;;;21.70;91.20;;;;;;5013331;28;20394;-72
2023/09/19 12:29:20;;;;;;;4.53;3.57;;;21.60;91.20;;;;;;5012492;28;20803;-71
2023/09/19 12:31:54;;;;;;;5.10;3.50;;;21.70;91.70;;;;;;5010487;28;20496;-71
2023/09/19 12:34:28;;;;;;;6.73;3.27;;;21.70;91.60;;;;;;5068922;28;20666;-70
2023/09/19 12:37:20;;;;;;;3.37;2.83;;;21.60;90.80;;;;;;5069851;28;20453;-70
2023/09/19 12:39:51;;;;;;;7.97;3.80;;;21.60;92.00;;;;;;5069033;28;20400;-70
2023/09/19 12:42:19;;;;;;;49.07;39.13;;;21.60;91.50;;;;;;5070053;28;20395;-70
2023/09/19 12:44:46;;;;;;;66.67;59.83;;;21.50;90.50;;;;;;5069159;28;20408;-70
2023/09/19 12:47:18;;;;;;;5.50;5.10;;;21.40;90.40;;;;;;5069736;28;20407;-70
2023/09/19 12:50:07;;;;;;;12.90;9.57;;;21.40;90.30;;;;;;5069041;28;20451;-69
2023/09/19 12:52:37;;;;;;;5.27;4.73;;;21.30;90.10;;;;;;5069273;28;20882;-68
2023/09/19 12:55:04;;;;;;;7.00;6.30;;;21.30;90.40;;;;;;5069600;28;20415;-68
2023/09/19 12:57:34;;;;;;;7.53;6.93;;;21.40;91.20;;;;;;5069499;28;20443;-68
2023/09/19 13:00:10;;;;;;;5.70;5.10;;;21.40;91.50;;;;;;5069768;28;20416;-68
2023/09/19 13:02:36;;;;;;;4.90;3.63;;;21.50;91.30;;;;;;5067786;28;20522;-68
2023/09/19 13:05:06;;;;;;;6.50;5.10;;;21.50;90.80;;;;;;5069358;28;20478;-68
2023/09/19 13:07:46;;;;;;;6.47;5.90;;;21.50;91.40;;;;;;5068454;28;20403;-68
2023/09/19 13:10:15;;;;;;;5.50;5.10;;;21.50;90.90;;;;;;5069446;28;20486;-68
2023/09/19 13:12:44;;;;;;;3.50;3.20;;;21.60;91.10;;;;;;5067678;28;20584;-68